Time;durP1;ratioP1;P1;durP2;ratioP2;P2;SDS_P1;SDS_P2;PMS_P1;PMS_P2;Temp;Humidity;BMP_temperature;BMP_pressure;BME280_temperature;BME280_humidity;BME280_pressure;Samples;Min_cycle;Max_cycle;Signal;HPM_P1;HPM_P2
2023/06/12 00:01:16;;;;;;;10.27;7.88;;;24.60;99.90;;;25.01;45.09;101363.34;4938066;29;20458;-62
2023/06/12 00:03:47;;;;;;;12.75;8.02;;;24.50;99.90;;;24.99;45.09;101352.59;4937746;29;20497;-62
2023/06/12 00:06:17;;;;;;;11.38;7.90;;;24.50;99.90;;;24.78;45.68;101353.81;4934082;29;20095;-61
2023/06/12 00:08:46;;;;;;;9.30;8.07;;;24.30;99.90;;;24.78;45.82;101358.34;4934704;29;20082;-61
2023/06/12 00:11:16;;;;;;;10.00;8.10;;;24.20;99.90;;;24.54;45.90;101359.66;4938108;29;20059;-62
2023/06/12 00:13:47;;;;;;;10.20;8.93;;;24.10;99.90;;;24.65;45.90;101357.25;4937890;29;20055;-61
2023/06/12 00:16:16;;;;;;;12.82;7.97;;;24.10;99.90;;;24.65;45.64;101358.13;4937663;29;20083;-62
2023/06/12 00:18:48;;;;;;;11.40;7.97;;;24.10;99.90;;;24.28;46.59;101360.16;4936417;29;20094;-62
2023/06/12 00:21:19;;;;;;;10.10;7.82;;;23.80;99.90;;;24.43;46.30;101357.53;4937544;29;20048;-61
2023/06/12 00:23:48;;;;;;;9.73;8.15;;;23.90;99.90;;;24.21;46.57;101366.88;4946153;29;20056;-61
2023/06/12 00:26:16;;;;;;;9.43;8.23;;;23.70;99.90;;;24.21;46.73;101366.88;4936349;29;20044;-61
2023/06/12 00:28:46;;;;;;;8.82;7.93;;;23.70;99.90;;;24.16;46.40;101337.34;4936297;29;20051;-61
2023/06/12 00:31:15;;;;;;;13.73;7.95;;;23.70;99.90;;;24.37;46.34;101365.97;4936254;29;20048;-61
2023/06/12 00:33:43;;;;;;;9.57;8.57;;;23.80;99.90;;;24.30;46.28;101360.97;4937200;29;20098;-61
2023/06/12 00:36:13;;;;;;;13.45;8.10;;;23.80;99.90;;;24.06;46.65;101339.69;4937414;29;20047;-61
2023/06/12 00:38:42;;;;;;;9.48;7.88;;;23.70;99.90;;;24.24;46.32;101372.97;4937131;29;20098;-62
2023/06/12 00:41:10;;;;;;;9.02;7.72;;;23.70;99.90;;;24.09;46.50;101369.28;4937059;29;20047;-61
2023/06/12 00:43:39;;;;;;;10.80;7.75;;;23.60;99.90;;;24.14;46.32;101350.97;4937275;29;20055;-62
2023/06/12 00:46:08;;;;;;;8.80;7.97;;;23.70;99.90;;;24.30;45.96;101366.38;4933538;29;20126;-62
2023/06/12 00:48:37;;;;;;;7.88;7.07;;;23.80;99.90;;;24.29;46.41;101381.75;4936945;29;20227;-61
2023/06/12 00:51:08;;;;;;;8.80;7.75;;;23.80;99.90;;;24.10;46.41;101376.41;4936880;29;20780;-61
2023/06/12 00:53:38;;;;;;;12.43;7.95;;;23.60;99.90;;;24.10;46.73;101372.81;4935944;29;20054;-61
2023/06/12 00:56:06;;;;;;;10.50;7.57;;;23.50;99.90;;;23.98;46.88;101374.31;4928167;29;20107;-61
2023/06/12 00:58:35;;;;;;;9.70;7.63;;;23.40;99.90;;;23.93;46.96;101378.19;4935711;29;20055;-62
2023/06/12 01:01:03;;;;;;;14.35;7.82;;;23.40;99.90;;;23.95;46.52;101381.69;4937020;29;20044;-61
2023/06/12 01:03:32;;;;;;;8.68;7.78;;;23.40;99.90;;;23.85;47.01;101384.00;4936981;29;20130;-62
2023/06/12 01:06:06;;;;;;;8.52;7.68;;;23.30;99.90;;;23.73;46.67;101384.63;4932487;29;20469;-62
2023/06/12 01:08:49;;;;;;;9.60;7.93;;;23.20;99.90;;;23.65;47.25;101384.16;4935675;29;20110;-62
2023/06/12 01:11:19;;;;;;;8.50;7.60;;;23.10;99.90;;;23.45;47.75;101384.25;4935578;29;20501;-62
2023/06/12 01:13:48;;;;;;;9.82;8.18;;;22.90;99.90;;;23.58;47.58;101384.50;4916411;29;20052;-62
2023/06/12 01:16:16;;;;;;;9.70;8.18;;;23.00;99.90;;;23.51;47.59;101378.56;4935374;29;20051;-62
2023/06/12 01:18:44;;;;;;;9.20;8.30;;;23.00;99.90;;;23.42;47.57;101384.44;4935172;29;20449;-62
2023/06/12 01:21:21;;;;;;;15.00;8.38;;;22.90;99.90;;;23.29;48.28;101376.00;4934995;29;20055;-62
2023/06/12 01:24:18;;;;;;;12.27;8.45;;;22.80;99.90;;;23.45;48.07;101378.84;4943646;29;20051;-64
2023/06/12 01:27:08;;;;;;;9.13;7.70;;;22.90;99.90;;;23.33;48.43;101373.16;4943135;29;20051;-62
2023/06/12 01:30:23;;;;;;;12.27;7.90;;;22.80;99.90;;;23.34;48.16;101373.13;4925880;29;20056;-63
2023/06/12 01:32:56;;;;;;;13.25;8.20;;;22.80;99.90;;;23.23;48.43;101384.41;4916006;29;20071;-62
2023/06/12 01:35:30;;;;;;;9.90;7.95;;;22.80;99.90;;;23.26;48.76;101403.16;4927517;29;20047;-62
2023/06/12 01:38:08;;;;;;;13.48;8.73;;;22.80;99.90;;;23.26;48.43;101377.97;4935098;29;20142;-62
2023/06/12 01:40:40;;;;;;;9.23;8.15;;;22.80;99.90;;;23.36;48.49;101383.84;4946394;29;20107;-62
2023/06/12 01:43:08;;;;;;;11.85;8.55;;;22.80;99.90;;;23.47;48.26;101376.06;4936318;29;20047;-62
2023/06/12 01:45:39;;;;;;;10.13;8.00;;;22.90;99.90;;;23.47;48.18;101376.97;4936003;29;20409;-62
2023/06/12 01:48:10;;;;;;;10.75;8.40;;;23.00;99.90;;;23.45;48.20;101375.28;4934873;29;20090;-62
2023/06/12 01:50:38;;;;;;;11.23;8.50;;;22.90;99.90;;;23.21;48.33;101355.72;4936455;29;20118;-62
2023/06/12 01:53:07;;;;;;;10.30;8.60;;;22.80;99.90;;;23.30;48.53;101380.47;4915814;29;20493;-63
2023/06/12 01:55:36;;;;;;;9.18;8.38;;;22.80;99.90;;;23.06;49.28;101369.94;4928774;29;20394;-63
2023/06/12 01:58:06;;;;;;;11.35;7.95;;;22.60;99.90;;;23.06;48.72;101357.34;4934714;29;20063;-62
2023/06/12 02:00:58;;;;;;;9.20;8.10;;;22.70;99.90;;;23.32;48.56;101379.53;4931727;29;20051;-62
2023/06/12 02:03:30;;;;;;;9.70;8.70;;;22.70;99.90;;;23.34;48.45;101380.34;4934668;29;20107;-64
2023/06/12 02:05:59;;;;;;;12.10;8.35;;;22.80;99.90;;;23.23;48.58;101356.50;4935654;29;20243;-62
2023/06/12 02:08:27;;;;;;;12.70;8.80;;;22.80;99.90;;;23.42;48.28;101381.72;4934577;29;20050;-62
2023/06/12 02:10:55;;;;;;;9.73;8.25;;;22.90;99.90;;;23.46;48.12;101382.44;4934481;29;20135;-62
2023/06/12 02:13:24;;;;;;;10.15;8.65;;;22.90;99.90;;;23.41;48.38;101379.97;4935548;29;20048;-62
2023/06/12 02:15:52;;;;;;;10.43;8.10;;;22.90;99.90;;;23.35;48.34;101353.25;4934443;29;20139;-62
2023/06/12 02:18:21;;;;;;;9.98;8.48;;;23.00;99.90;;;23.43;48.38;101372.66;4935311;29;20051;-63
2023/06/12 02:20:50;;;;;;;9.48;8.27;;;23.00;99.90;;;23.28;48.81;101378.78;4915596;29;20056;-63
2023/06/12 02:23:19;;;;;;;11.68;8.38;;;22.90;99.90;;;23.26;48.69;101381.56;4935942;29;20410;-62
2023/06/12 02:25:47;;;;;;;9.10;8.20;;;22.80;99.90;;;23.09;49.21;101367.13;4942709;29;20099;-62
2023/06/12 02:28:15;;;;;;;14.77;7.85;;;22.60;99.90;;;22.98;49.08;101353.25;4935330;29;20055;-62
2023/06/12 02:30:44;;;;;;;9.98;8.95;;;22.60;99.90;;;23.03;49.68;101364.72;4935600;29;20047;-62
2023/06/12 02:33:13;;;;;;;14.60;8.85;;;22.60;99.90;;;22.96;49.50;101365.94;4934290;29;20043;-62
2023/06/12 02:35:43;;;;;;;9.73;8.45;;;22.50;99.90;;;22.64;50.42;101364.75;4926764;29;20450;-62
2023/06/12 02:38:14;;;;;;;10.90;8.35;;;22.20;99.90;;;22.87;49.84;101366.38;4934282;29;20451;-65
2023/06/12 02:40:42;;;;;;;11.13;8.90;;;22.40;99.90;;;22.84;49.99;101364.69;4930514;29;20062;-63
2023/06/12 02:43:11;;;;;;;11.48;8.93;;;22.30;99.90;;;22.91;49.84;101365.28;4936313;29;20807;-63
2023/06/12 02:45:39;;;;;;;11.25;8.75;;;22.40;99.90;;;22.83;49.50;101352.16;4939421;29;20058;-62
2023/06/12 02:48:08;;;;;;;12.70;9.32;;;22.50;99.90;;;22.80;49.69;101365.78;4938116;29;20094;-62
2023/06/12 02:50:39;;;;;;;13.75;8.82;;;22.30;99.90;;;22.93;49.57;101369.69;4938132;29;20051;-62
2023/06/12 02:53:08;;;;;;;10.85;8.23;;;22.40;99.90;;;22.55;50.38;101357.03;4938089;29;20511;-63
2023/06/12 02:55:39;;;;;;;12.07;8.75;;;22.20;99.90;;;22.58;50.36;101361.47;4939254;29;20040;-63
2023/06/12 02:58:09;;;;;;;9.82;8.55;;;22.10;99.90;;;22.59;50.46;101365.94;4934872;29;20048;-62
2023/06/12 03:00:37;;;;;;;15.68;9.07;;;22.10;99.90;;;22.59;50.54;101360.53;4918893;29;20052;-63
2023/06/12 03:03:06;;;;;;;11.52;8.02;;;22.10;99.90;;;22.36;50.63;101335.44;4937508;29;20048;-62
2023/06/12 03:05:36;;;;;;;11.02;9.07;;;22.10;99.90;;;22.49;50.92;101364.56;4939116;29;20048;-62
2023/06/12 03:08:05;;;;;;;11.80;8.27;;;22.00;99.90;;;22.56;50.31;101371.41;4939040;29;20044;-63
2023/06/12 03:10:33;;;;;;;10.25;9.23;;;22.10;99.90;;;22.66;50.25;101362.88;4930036;29;20382;-63
2023/06/12 03:13:03;;;;;;;12.05;8.40;;;22.20;99.90;;;22.59;50.35;101372.19;4937598;29;20106;-62
2023/06/12 03:15:31;;;;;;;11.63;9.03;;;22.20;99.90;;;22.74;50.23;101367.91;4929981;29;20055;-63
2023/06/12 03:18:00;;;;;;;10.68;8.52;;;22.20;99.90;;;22.75;49.92;101373.22;4937339;29;20299;-62
2023/06/12 03:20:28;;;;;;;12.68;8.63;;;22.30;99.90;;;22.05;50.06;101254.22;4938723;29;20437;-63
2023/06/12 03:22:57;;;;;;;10.50;9.25;;;22.30;99.90;;;22.63;50.63;101383.72;4933683;29;20490;-62
2023/06/12 03:25:26;;;;;;;12.15;8.50;;;22.10;99.90;;;22.67;50.49;101388.88;4935474;29;20119;-62
2023/06/12 03:27:55;;;;;;;11.73;9.45;;;22.10;99.90;;;22.56;50.47;101387.59;4937376;29;20062;-62
2023/06/12 03:30:25;;;;;;;11.57;8.88;;;22.10;99.90;;;22.53;50.77;101393.13;4938589;29;20063;-63
2023/06/12 03:32:56;;;;;;;15.93;8.95;;;22.00;99.90;;;22.51;50.59;101392.34;4937345;29;20449;-62
2023/06/12 03:35:25;;;;;;;9.27;8.45;;;22.00;99.90;;;22.54;50.46;101389.47;4937362;29;20103;-62
2023/06/12 03:37:54;;;;;;;9.90;8.25;;;22.00;99.90;;;22.58;50.41;101392.00;4945528;29;20056;-63
2023/06/12 03:40:23;;;;;;;11.98;8.88;;;22.00;99.90;;;22.64;50.79;101394.44;4933894;29;20111;-63
2023/06/12 03:42:52;;;;;;;12.15;8.68;;;22.10;99.90;;;22.45;51.27;101391.63;4930130;29;20135;-63
2023/06/12 03:45:21;;;;;;;10.20;9.02;;;21.90;99.90;;;22.62;50.47;101400.84;4938127;29;20055;-62
2023/06/12 03:47:50;;;;;;;12.98;9.15;;;22.00;99.90;;;22.63;50.26;101399.91;4929441;29;20489;-62
2023/06/12 03:50:22;;;;;;;10.32;9.32;;;22.10;99.90;;;22.72;50.20;101407.56;4937100;29;20079;-63
2023/06/12 03:52:50;;;;;;;12.52;8.88;;;22.10;99.90;;;22.74;50.37;101406.56;4929160;29;20501;-63
2023/06/12 03:55:21;;;;;;;10.60;8.60;;;22.20;99.90;;;22.84;50.34;101405.16;4936947;29;20071;-63
2023/06/12 03:57:50;;;;;;;11.02;8.45;;;22.30;99.90;;;23.06;49.80;101402.34;4926081;29;21127;-63
2023/06/12 04:00:20;;;;;;;11.82;9.15;;;22.50;99.90;;;23.09;49.72;101404.91;4936578;29;20055;-62
2023/06/12 04:02:53;;;;;;;9.73;8.65;;;22.60;99.90;;;23.19;49.50;101407.09;4918016;29;20082;-62
2023/06/12 04:05:23;;;;;;;10.02;8.73;;;22.70;99.90;;;23.29;49.56;101405.69;4936777;29;20059;-63
2023/06/12 04:07:51;;;;;;;10.40;8.88;;;22.80;99.90;;;23.40;49.54;101404.34;4937924;29;20055;-65
2023/06/12 04:10:22;;;;;;;12.48;8.55;;;22.80;99.90;;;23.33;49.56;101410.97;4936651;29;20055;-62
2023/06/12 04:12:50;;;;;;;;;;;22.80;99.90;;;23.21;49.77;101407.00;4938317;28;20446;-63
2023/06/12 04:15:19;;;;;;;14.45;8.63;;;22.80;99.90;;;23.33;49.55;101409.16;4936283;29;19927;-62
2023/06/12 04:17:48;;;;;;;9.90;9.00;;;22.80;99.90;;;23.26;49.63;101413.06;4937636;29;20055;-63
2023/06/12 04:20:18;;;;;;;12.82;8.60;;;22.80;99.90;;;23.13;49.74;101415.47;4924902;29;20059;-65
2023/06/12 04:22:49;;;;;;;11.50;9.65;;;22.70;99.90;;;23.08;50.02;101419.34;4937672;29;20080;-63
2023/06/12 04:25:18;;;;;;;11.90;9.15;;;22.60;99.90;;;23.16;49.92;101409.06;4936423;29;20059;-63
2023/06/12 04:27:48;;;;;;;9.80;8.90;;;22.70;99.90;;;23.22;49.81;101415.06;4928661;29;20409;-62
2023/06/12 04:30:17;;;;;;;10.25;9.13;;;22.70;99.90;;;23.16;49.63;101412.66;4937528;29;20134;-62
2023/06/12 04:32:45;;;;;;;10.35;8.75;;;22.70;99.90;;;22.95;50.75;101413.66;4936149;29;20078;-63
2023/06/12 04:35:16;;;;;;;12.40;8.85;;;22.50;99.90;;;22.83;50.42;101416.91;4937419;29;20098;-63
2023/06/12 04:37:48;;;;;;;11.45;9.18;;;22.40;99.90;;;22.54;51.38;101416.44;4945303;29;20409;-63
2023/06/12 04:40:17;;;;;;;9.95;8.95;;;22.00;99.90;;;22.73;51.19;101420.09;4936030;29;20114;-62
2023/06/12 04:42:46;;;;;;;13.13;9.40;;;22.10;99.90;;;22.74;51.44;101414.66;4937361;29;20091;-62
2023/06/12 04:45:16;;;;;;;11.10;9.57;;;22.10;99.90;;;22.68;51.76;101417.63;4936016;29;20054;-63
2023/06/12 04:47:46;;;;;;;10.67;9.03;;;22.10;99.90;;;22.73;51.37;101415.59;4928465;29;20300;-63
2023/06/12 04:50:14;;;;;;;14.48;9.43;;;22.30;99.90;;;22.87;51.35;101409.56;4935896;29;20062;-63
2023/06/12 04:52:43;;;;;;;19.13;9.10;;;22.30;99.90;;;22.94;51.03;101413.72;4924988;29;20143;-62
2023/06/12 04:55:20;;;;;;;11.93;9.55;;;22.40;99.90;;;22.89;51.29;101413.06;4951655;29;20099;-62
2023/06/12 04:57:52;;;;;;;13.32;9.60;;;22.40;99.90;;;23.00;51.30;101418.81;4934824;29;20090;-62
2023/06/12 05:00:23;;;;;;;10.07;9.07;;;22.50;99.90;;;22.99;51.40;101406.28;4935640;29;20051;-62
2023/06/12 05:02:52;;;;;;;10.70;8.68;;;22.60;99.90;;;23.02;51.04;101425.03;4928075;29;20044;-63
2023/06/12 05:05:21;;;;;;;12.20;9.10;;;22.60;99.90;;;22.92;50.95;101418.28;4932037;29;20112;-63
2023/06/12 05:07:51;;;;;;;12.38;8.98;;;22.50;99.90;;;22.37;51.07;101307.56;4928631;29;20452;-64
2023/06/12 05:10:21;;;;;;;14.10;9.15;;;22.50;99.90;;;22.66;51.35;101410.53;4935400;29;20076;-63
2023/06/12 05:12:50;;;;;;;13.30;8.98;;;22.40;99.90;;;22.81;51.80;101429.59;4927834;29;20058;-63
2023/06/12 05:15:18;;;;;;;11.38;9.15;;;22.30;99.90;;;22.51;53.31;101422.00;4935408;29;20039;-63
2023/06/12 05:17:46;;;;;;;12.70;8.95;;;22.10;99.90;;;22.67;52.64;101426.66;4936332;29;20067;-63
2023/06/12 05:20:15;;;;;;;12.32;9.30;;;22.10;99.90;;;22.76;52.49;101409.19;4936611;29;20071;-62
2023/06/12 05:22:44;;;;;;;11.45;9.77;;;22.30;99.90;;;22.94;52.30;101438.88;4935210;29;20048;-62
2023/06/12 05:25:12;;;;;;;10.85;9.23;;;22.40;99.90;;;22.93;52.82;101441.66;4936430;29;20059;-63
2023/06/12 05:27:42;;;;;;;14.25;9.02;;;22.50;99.90;;;22.72;53.32;101437.25;4936508;29;20050;-62
2023/06/12 05:30:12;;;;;;;13.65;8.93;;;22.30;99.90;;;22.55;53.68;101435.25;4932666;29;20048;-63
2023/06/12 05:32:40;;;;;;;14.05;8.68;;;22.00;99.90;;;22.52;53.55;101429.13;4933254;29;20040;-62
2023/06/12 05:35:10;;;;;;;13.13;9.20;;;22.00;99.90;;;22.56;53.92;101426.22;4927458;29;20051;-62
2023/06/12 05:37:38;;;;;;;19.40;8.65;;;22.00;99.90;;;22.61;53.46;101423.38;4936278;29;20047;-63
2023/06/12 05:40:09;;;;;;;13.00;9.50;;;22.10;99.90;;;22.47;54.06;101428.47;4934934;29;20075;-63
2023/06/12 05:42:39;;;;;;;14.75;9.63;;;22.00;99.90;;;22.70;54.04;101429.22;4934857;29;20044;-70
2023/06/12 05:45:10;;;;;;;14.10;8.82;;;22.20;99.90;;;22.91;54.21;101422.84;4934804;29;20536;-71
2023/06/12 05:47:39;;;;;;;;;;;22.30;99.90;;;23.15;52.24;101429.78;4936316;29;20401;-71
2023/06/12 05:50:09;;;;;;;15.57;10.32;;;22.60;99.90;;;23.02;52.49;101398.91;4916054;29;19927;-72
2023/06/12 05:52:38;;;;;;;13.25;9.00;;;22.70;99.90;;;23.29;52.58;101431.81;4934796;29;20458;-70
2023/06/12 05:55:09;;;;;;;9.52;8.50;;;22.70;99.90;;;23.37;52.21;101432.38;4926889;29;20052;-72
2023/06/12 05:57:38;;;;;;;14.70;8.93;;;22.80;99.90;;;23.37;51.75;101436.88;4934677;29;20048;-67
2023/06/12 06:00:11;;;;;;;13.93;8.57;;;22.90;99.90;;;23.55;51.41;101426.06;4934650;29;20094;-74
2023/06/12 06:02:43;;;;;;;15.63;8.55;;;22.90;99.90;;;23.77;51.18;101445.66;4931896;29;20056;-70
2023/06/12 06:05:24;;;;;;;13.00;8.75;;;23.20;99.90;;;23.94;50.93;101450.25;4925172;29;20821;-71
2023/06/12 06:07:53;;;;;;;14.20;9.15;;;23.40;99.90;;;24.01;51.59;101446.28;4942648;29;20055;-70
2023/06/12 06:10:21;;;;;;;13.75;8.63;;;23.50;99.90;;;24.04;50.72;101446.16;4934352;29;20036;-70
2023/06/12 06:12:52;;;;;;;17.47;8.67;;;23.50;99.90;;;23.96;50.66;101449.19;4934468;29;20144;-71
2023/06/12 06:15:22;;;;;;;14.80;9.18;;;23.50;99.90;;;23.93;50.82;101449.38;4934435;29;20306;-73
2023/06/12 06:17:50;;;;;;;20.57;9.10;;;23.40;99.90;;;23.68;50.07;101413.72;4926342;29;20147;-72
2023/06/12 06:20:20;;;;;;;11.70;8.23;;;23.40;99.90;;;24.03;49.16;101442.56;4934341;29;20307;-73
2023/06/12 06:22:49;;;;;;;11.60;8.68;;;23.50;99.90;;;24.11;50.81;101450.28;4926629;29;20493;-71
2023/06/12 06:25:17;;;;;;;14.38;9.13;;;23.50;99.90;;;24.17;49.99;101445.47;4935563;29;20130;-71
2023/06/12 06:27:46;;;;;;;15.35;8.35;;;23.60;99.90;;;24.38;49.71;101461.50;4935620;29;20440;-73
2023/06/12 06:30:15;;;;;;;12.80;8.57;;;23.70;99.90;;;24.49;49.02;101451.00;4935652;29;20185;-71
2023/06/12 06:32:46;;;;;;;14.50;8.90;;;23.90;99.90;;;24.52;49.69;101454.44;4942596;29;20056;-71
2023/06/12 06:35:16;;;;;;;19.70;9.55;;;24.00;99.90;;;24.72;48.40;101456.09;4930536;29;20048;-73
2023/06/12 06:37:44;;;;;;;14.43;8.95;;;24.20;99.90;;;24.64;48.40;101452.91;4933912;29;20481;-71
2023/06/12 06:40:14;;;;;;;15.57;8.75;;;24.20;99.90;;;24.65;49.45;101450.13;4926494;29;20453;-71
2023/06/12 06:42:43;;;;;;;11.50;7.97;;;24.10;99.90;;;24.76;48.94;101450.44;4935143;29;20044;-71
2023/06/12 06:45:13;;;;;;;12.73;8.68;;;24.20;99.90;;;24.75;49.55;101461.38;4934184;29;20102;-71
2023/06/12 06:47:45;;;;;;;15.90;9.23;;;24.30;99.90;;;24.85;49.10;101465.34;4934214;29;20052;-70
2023/06/12 06:50:13;;;;;;;14.63;8.35;;;24.30;99.90;;;24.93;48.87;101474.78;4942330;29;20055;-71
2023/06/12 06:52:42;;;;;;;11.93;8.35;;;24.40;99.90;;;25.08;49.68;101461.38;4933979;29;20052;-71
2023/06/12 06:55:13;;;;;;;10.13;7.93;;;24.50;99.90;;;25.17;48.27;101459.03;4915385;29;20064;-73
2023/06/12 06:57:42;;;;;;;14.60;7.88;;;24.60;99.90;;;25.13;48.16;101460.16;4934001;29;20044;-70
2023/06/12 07:00:12;;;;;;;11.85;8.70;;;24.60;99.90;;;25.17;47.34;101455.44;4926377;29;20044;-71
2023/06/12 07:02:45;;;;;;;10.77;7.53;;;24.70;99.90;;;24.88;47.19;101392.06;4933921;29;20398;-71
2023/06/12 07:05:17;;;;;;;8.60;7.70;;;24.80;99.90;;;25.44;47.25;101457.50;4934972;29;20050;-71
2023/06/12 07:07:48;;;;;;;10.80;8.02;;;24.90;99.90;;;25.26;46.25;101457.66;4930788;29;20048;-71
2023/06/12 07:10:32;;;;;;;17.65;8.10;;;24.80;99.90;;;25.41;46.49;101463.13;4925140;29;20052;-70
2023/06/12 07:13:01;;;;;;;9.02;7.60;;;24.90;99.90;;;25.21;45.01;101465.13;4942199;28;20056;-71
2023/06/12 07:15:36;;;;;;;13.07;8.48;;;24.70;99.90;;;25.26;45.72;101458.50;4927715;29;20044;-71
2023/06/12 07:18:07;;;;;;;9.02;8.00;;;24.70;99.90;;;25.43;45.44;101460.31;4933485;29;20063;-71
2023/06/12 07:20:36;;;;;;;10.63;8.35;;;24.90;99.90;;;25.35;45.28;101441.75;4935463;29;20120;-69
2023/06/12 07:23:05;;;;;;;9.65;8.00;;;24.90;99.90;;;25.55;44.43;101457.78;4933654;29;20481;-69
2023/06/12 07:25:33;;;;;;;11.35;7.72;;;25.10;99.90;;;25.26;46.02;101431.41;4934818;29;20078;-69
2023/06/12 07:28:03;;;;;;;9.07;7.95;;;24.90;99.90;;;25.58;44.57;101464.84;4934190;29;20055;-70
2023/06/12 07:30:33;;;;;;;8.73;7.32;;;25.00;99.90;;;25.72;44.07;101451.41;4929967;29;20103;-67
2023/06/12 07:33:02;;;;;;;8.88;7.63;;;25.20;99.90;;;25.76;43.17;101455.69;4937390;29;20055;-69
2023/06/12 07:35:32;;;;;;;10.88;8.07;;;25.20;99.90;;;25.80;44.37;101459.97;4933748;29;20071;-71
2023/06/12 07:38:02;;;;;;;10.45;8.23;;;25.40;99.90;;;25.84;44.46;101456.13;4937415;29;20058;-69
2023/06/12 07:40:31;;;;;;;13.57;7.45;;;25.30;99.90;;;26.00;44.50;101462.38;4945179;29;20139;-68
2023/06/12 07:43:01;;;;;;;13.07;8.07;;;25.50;99.90;;;26.12;44.57;101468.94;4937175;29;20143;-70
2023/06/12 07:45:30;;;;;;;12.77;8.48;;;25.60;99.90;;;26.17;45.07;101464.13;4937102;29;20489;-68
2023/06/12 07:47:59;;;;;;;13.40;7.95;;;25.60;99.90;;;26.44;44.75;101482.31;4936605;29;20048;-68
2023/06/12 07:50:35;;;;;;;14.77;8.35;;;25.90;99.90;;;26.43;42.37;101463.44;4934351;29;20040;-69
2023/06/12 07:53:03;;;;;;;11.05;7.38;;;26.00;99.90;;;26.32;42.36;101464.09;4936942;29;20058;-69
2023/06/12 07:55:31;;;;;;;9.93;7.53;;;25.90;99.90;;;26.29;41.62;101474.22;4938021;29;20051;-69
2023/06/12 07:58:01;;;;;;;11.15;7.15;;;25.80;99.90;;;26.48;41.45;101466.75;4938766;29;20107;-68
2023/06/12 08:00:32;;;;;;;11.50;8.10;;;26.00;99.90;;;26.53;43.57;101459.19;4937541;29;20079;-69
2023/06/12 08:03:02;;;;;;;9.52;7.57;;;26.00;99.90;;;26.63;43.17;101463.97;4946358;29;20146;-67
2023/06/12 08:05:49;;;;;;;10.85;7.95;;;26.10;99.90;;;26.65;44.12;101464.72;4946872;29;20131;-62
2023/06/12 08:08:18;;;;;;;11.32;7.50;;;26.10;99.90;;;26.78;41.05;101467.63;4936712;29;20059;-62
2023/06/12 08:10:46;;;;;;;14.55;7.45;;;26.40;99.90;;;26.60;41.94;101442.44;4941491;28;20051;-61
2023/06/12 08:13:15;;;;;;;8.70;7.45;;;26.20;99.90;;;26.81;41.59;101466.56;4928915;29;20118;-61
2023/06/12 08:15:44;;;;;;;10.18;6.95;;;26.30;99.90;;;26.37;41.56;101455.66;4936523;29;20130;-61
2023/06/12 08:18:14;;;;;;;10.80;7.40;;;26.00;99.90;;;26.63;43.60;101465.81;4932842;29;20063;-62
2023/06/12 08:20:44;;;;;;;10.05;7.13;;;26.10;99.90;;;26.65;44.10;101459.31;4936488;29;20063;-61
2023/06/12 08:23:14;;;;;;;12.27;6.88;;;26.10;99.90;;;27.15;41.52;101471.59;4928674;29;20079;-61
2023/06/12 08:25:43;;;;;;;10.88;7.35;;;26.50;99.90;;;26.90;41.93;101428.84;4936550;29;20048;-61
2023/06/12 08:28:12;;;;;;;12.90;7.63;;;26.60;99.90;;;26.92;40.75;101470.34;4936264;29;20044;-60
2023/06/12 08:30:40;;;;;;;11.32;7.63;;;26.50;99.90;;;27.20;42.15;101464.91;4936310;29;20064;-62
2023/06/12 08:33:10;;;;;;;10.30;7.60;;;26.60;99.90;;;27.53;41.71;101473.63;4937492;29;20047;-61
2023/06/12 08:35:39;;;;;;;10.57;7.57;;;26.90;99.90;;;27.44;41.00;101466.09;4937586;29;20549;-61
2023/06/12 08:38:08;;;;;;;16.75;7.22;;;26.90;99.90;;;27.81;39.65;101463.66;4933628;29;20393;-62
2023/06/12 08:40:37;;;;;;;10.95;6.90;;;27.20;99.90;;;28.13;38.72;101460.56;4935035;29;20063;-61
2023/06/12 08:43:06;;;;;;;12.90;6.35;;;27.60;99.90;;;28.22;38.96;101461.78;4937269;29;20498;-61
2023/06/12 08:45:41;;;;;;;10.32;7.20;;;27.70;99.90;;;28.21;37.46;101470.91;4935998;29;20167;-61
2023/06/12 08:48:10;;;;;;;13.68;6.97;;;27.80;99.90;;;27.89;35.63;101467.63;4937023;29;20044;-61
2023/06/12 08:50:39;;;;;;;6.85;6.20;;;27.60;92.00;;;27.75;36.34;101455.91;4936912;29;20047;-61
2023/06/12 08:53:11;;;;;;;10.57;6.05;;;27.30;94.30;;;27.57;35.97;101467.03;4933513;29;20047;-62
2023/06/12 08:55:41;;;;;;;11.45;7.15;;;27.20;92.90;;;27.61;36.92;101444.09;4936878;29;20039;-61
2023/06/12 08:58:10;;;;;;;13.50;6.47;;;27.10;97.20;;;28.03;35.58;101439.53;4936776;29;20055;-61
2023/06/12 09:00:39;;;;;;;7.63;6.20;;;27.50;92.20;;;28.28;35.91;101451.34;4937021;29;20390;-61
2023/06/12 09:03:08;;;;;;;9.05;6.45;;;27.70;93.20;;;27.90;34.86;101461.19;4937027;29;20039;-62
2023/06/12 09:05:39;;;;;;;8.82;6.13;;;27.50;88.00;;;27.86;36.03;101440.63;4937111;29;20051;-61
2023/06/12 09:08:08;;;;;;;11.10;6.90;;;27.30;94.20;;;27.90;34.65;101453.03;4936638;29;20055;-62
2023/06/12 09:10:38;;;;;;;8.40;6.32;;;27.40;86.90;;;27.93;33.81;101424.78;4936595;29;20051;-62
2023/06/12 09:13:10;;;;;;;9.63;6.63;;;27.60;82.80;;;28.30;34.43;101454.84;4937107;29;20051;-62
2023/06/12 09:15:42;;;;;;;8.35;6.03;;;27.70;83.90;;;28.61;34.31;101458.19;4936515;29;20074;-63
2023/06/12 09:18:12;;;;;;;8.73;6.70;;;28.10;82.60;;;28.06;33.71;101448.34;4936346;29;20079;-62
2023/06/12 09:20:40;;;;;;;15.40;7.35;;;27.80;78.50;;;28.35;33.74;101455.41;4936428;29;20044;-66
2023/06/12 09:23:12;;;;;;;12.60;6.50;;;27.90;78.00;;;28.02;33.98;101459.53;4936285;29;20502;-63
2023/06/12 09:25:43;;;;;;;13.10;7.13;;;27.70;78.90;;;28.05;35.61;101454.75;4936783;29;20075;-62
2023/06/12 09:28:36;;;;;;;10.07;6.32;;;27.50;88.20;;;28.28;34.56;101454.06;4935579;29;20095;-62
2023/06/12 09:31:06;;;;;;;7.85;6.07;;;27.70;86.80;;;28.15;36.29;101457.72;4932825;29;20044;-62
2023/06/12 09:33:39;;;;;;;7.85;6.13;;;27.70;91.20;;;27.90;34.39;101460.31;4936409;29;20055;-63
2023/06/12 09:36:08;;;;;;;11.05;6.63;;;27.50;81.70;;;27.66;34.12;101417.47;4943432;29;20122;-62
2023/06/12 09:38:37;;;;;;;10.52;6.60;;;27.30;80.60;;;28.27;34.66;101459.63;4935987;29;20139;-61
2023/06/12 09:41:07;;;;;;;8.73;6.22;;;27.60;84.80;;;28.23;36.60;101453.50;4943267;29;20536;-62
2023/06/12 09:43:37;;;;;;;8.68;6.40;;;27.70;93.10;;;28.52;35.29;101452.38;4935961;29;20528;-63
2023/06/12 09:46:08;;;;;;;10.23;6.57;;;28.00;90.40;;;28.18;34.70;101450.25;4935960;29;20056;-63
2023/06/12 09:48:39;;;;;;;9.15;5.95;;;27.80;84.40;;;28.28;34.91;101451.34;4933329;29;20047;-62
2023/06/12 09:51:09;;;;;;;9.63;6.78;;;27.70;89.90;;;28.20;33.83;101459.16;4935896;29;20137;-62
2023/06/12 09:53:39;;;;;;;10.23;6.47;;;27.70;78.70;;;28.13;34.62;101446.06;4935822;29;20047;-62
2023/06/12 09:56:10;;;;;;;7.63;6.70;;;27.70;82.80;;;28.16;34.72;101476.69;4934763;29;20063;-62
2023/06/12 09:58:42;;;;;;;8.85;6.38;;;27.70;84.70;;;28.19;35.29;101459.25;4935750;29;20047;-62
2023/06/12 10:01:10;;;;;;;9.20;6.68;;;27.60;88.20;;;28.37;35.83;101445.28;4931479;29;20127;-63
2023/06/12 10:03:44;;;;;;;9.98;5.88;;;27.80;92.00;;;28.67;32.58;101445.00;4935458;29;20043;-69
2023/06/12 10:06:14;;;;;;;6.50;5.80;;;28.10;75.20;;;28.92;32.74;101469.53;4935672;29;20429;-71
2023/06/12 10:08:43;;;;;;;6.90;6.10;;;28.40;74.00;;;28.95;32.97;101458.44;4934710;29;20528;-71
2023/06/12 10:11:12;;;;;;;13.68;6.00;;;28.50;74.70;;;29.02;33.61;101462.44;4934552;29;20705;-72
2023/06/12 10:13:42;;;;;;;7.90;5.45;;;28.60;76.50;;;29.23;32.03;101446.41;4935507;29;20059;-72
2023/06/12 10:16:11;;;;;;;11.48;6.03;;;28.80;69.60;;;29.32;32.24;101454.84;4935747;29;20075;-72
2023/06/12 10:18:40;;;;;;;9.60;6.15;;;28.90;69.60;;;29.15;31.89;101457.88;4931060;29;20060;-73
2023/06/12 10:21:09;;;;;;;9.40;5.50;;;28.80;67.10;;;29.03;31.47;101461.47;4935492;29;20039;-73